Selected Arizona METAR Reports


Metar stations are listed by distance from this station - near to far. The 'official' reporting station for the Greater Phoenix area is KPHX - Phoenix/Sky Harbor.

KDVT - Phoenix/Deer Valley, Arizona, USA
Distance from station: NW 4mi, 7km
Updated: Thu 20 Jun 2019 0153 MST
Clear
Clear
 Wind from calm
Wind: Calm
Temperature: 73°F , 23°C
Dew Point: 28°F , -2°C
Humidity: 19%
Barometer: 29.84 inHg , 1010.5 hPa
Clouds: Clear
Visibility: 10 miles , 16 km
2019/06/20 08:53 KDVT 200853Z 00000KT 10SM CLR 23/M02 A2984 RMK AO2 SLP078 T02331017 58001
KSDL - Scottsdale, Arizona, USA
Distance from station: ESE 6mi, 9km
Updated: Thu 20 Jun 2019 0153 MST
Clear
Clear
 Wind from NNE
Wind: NNE 5 mph , 7 km/h
Temperature: 82°F , 28°C
Dew Point: 30°F , -1°C
Humidity: 15%
Barometer: 29.85 inHg , 1010.8 hPa
Clouds: Clear
Visibility: 10 miles , 16 km
2019/06/20 08:53 KSDL 200853Z AUTO 02004KT 10SM CLR 28/M01 A2985 RMK AO2 SLP080 T02781006 58001
 
KPHX - Phoenix/Sky Harbor, Arizona, USA
Distance from station: S 15mi, 24km
Updated: Thu 20 Jun 2019 0151 MST
Clear
Clear
 Wind from W
Wind: W 3 mph , 6 km/h
Temperature: 84°F , 29°C
Dew Point: 25°F , -4°C
Humidity: 11%
Barometer: 29.80 inHg , 1009.1 hPa
Clouds: Clear
Visibility: 10 miles , 16 km
2019/06/20 08:51 KPHX 200851Z 26003KT 10SM CLR 29/M04 A2980 RMK AO2 SLP070 T02941039 58003
KGEU - Glendale, Arizona, USA
Distance from station: WSW 19mi, 30km
Updated: Wed 19 Jun 2019 1954 MST
NOT Current
Few Clouds
Few Clouds
 Wind from SW
Wind: SW 6 mph , 9 km/h
Temperature: 99°F , 37°C
Dew Point: 25°F , -4°C
Humidity: 7%
Barometer: 29.79 inHg , 1008.8 hPa
Clouds: Few Clouds
Visibility: 10 miles , 16 km
Cloud details: Few Clouds 20000 ft
2019/06/20 02:54 KGEU 200254Z 23005KT 10SM FEW200 37/M04 A2979 RMK LAST
 
KFFZ - Mesa/Falcon Field, Arizona, USA
Distance from station: SE 21mi, 33km
Updated: Thu 20 Jun 2019 0154 MST
Clear
Clear
 Wind from calm
Wind: Calm
Temperature: 81°F , 27°C
Dew Point: 37°F , 3°C
Humidity: 21%
Barometer: 29.84 inHg , 1010.5 hPa
Clouds: Clear
Visibility: 10 miles , 16 km
2019/06/20 08:54 KFFZ 200854Z 00000KT 10SM CLR 27/03 A2984 RMK AO2 SLP077 T02720033 50000
KLUF - Luke AFB/Glendale, Arizona, USA
Distance from station: WSW 23mi, 36km
Updated: Thu 20 Jun 2019 0158 MST
Clear
Clear
 Wind from WSW
Wind: WSW 7 mph , 11 km/h
Temperature: 84°F , 29°C
Dew Point: 28°F , -2°C
Humidity: 13%
Barometer: 29.80 inHg , 1009.1 hPa
Clouds: Clear
Visibility: 10 miles , 16 km
2019/06/20 08:58 KLUF 200858Z AUTO 24006KT 10SM CLR 29/M02 A2980 RMK AO2 SLP076 T02871025 58002 $
 
KGYR - Goodyear Municipal, Arizona, USA
Distance from station: SW 26mi, 42km
Updated: Wed 19 Jun 2019 2047 MST
NOT Current
Few Clouds
Few Clouds
 Wind from SSW
Wind: SSW 7 mph , 11 km/h
Temperature: 90°F , 32°C
Dew Point: 43°F , 6°C
Humidity: 20%
Barometer: 29.79 inHg , 1008.8 hPa
Clouds: Few Clouds
Visibility: 10 miles , 16 km
Cloud details: Few Clouds 18000 ft
2019/06/20 03:47 KGYR 200347Z 20006KT 10SM FEW180 32/06 A2979 RMK LAST
KIWA - Chandler/Mesa, Arizona, USA
Distance from station: SE 32mi, 51km
Updated: Thu 20 Jun 2019 0155 MST
Clear
Clear
 Wind from E
Wind: E 8 mph , 13 km/h
Temperature: 73°F , 23°C
Dew Point: 28°F , -2°C
Humidity: 19%
Barometer: 29.85 inHg , 1010.8 hPa
Clouds: Clear
Visibility: 10 miles , 16 km
2019/06/20 08:55 KIWA 200855Z AUTO 10007KT 10SM CLR 23/M02 A2985 RMK AO2 T02351022
 
KBXK - Buckeye, Arizona, USA
Distance from station: WSW 42mi, 68km
Updated: Thu 20 Jun 2019 0155 MST
Clear
Clear
 Wind from calm
Wind: Calm
Temperature: 77°F , 25°C
Dew Point: 25°F , -4°C
Humidity: 14%
Barometer: 29.83 inHg , 1010.2 hPa
Clouds: Clear
Visibility: 10 miles , 16 km
2019/06/20 08:55 KBXK 200855Z AUTO 00000KT 10SM CLR 25/M04 A2983 RMK AO1
KCGZ - Casa Grande, Arizona, USA
Distance from station: SSE 50mi, 81km
Updated: Thu 20 Jun 2019 0156 MST
Clear
Clear
 Wind from calm
Wind: Calm
Temperature: 73°F , 23°C
Dew Point: 28°F , -2°C
Humidity: 19%
Barometer: 29.86 inHg , 1011.2 hPa
Clouds: Clear
Visibility: 10 miles , 16 km
2019/06/20 08:56 KCGZ 200856Z AUTO 00000KT 10SM CLR 23/M02 A2986 RMK AO2 SLP095 T02281022 58002
 
KPAN - Payson, Arizona, USA
Distance from station: NE 57mi, 91km
Updated: Thu 20 Jun 2019 0155 MST
Clear
Clear
 Wind from calm
Wind: Calm
Temperature: 63°F , 17°C
Dew Point: 23°F , -5°C
Humidity: 22%
Barometer: 30.10 inHg , 1019.3 hPa
Clouds: Clear
Visibility: 10 miles , 16 km
2019/06/20 08:55 KPAN 200855Z AUTO 00000KT 10SM CLR 17/M05 A3010 RMK AO2
KGBN - Gila Bend (aaf), Arizona, USA
Distance from station: SW 68mi, 109km
Updated: Thu 20 Jul 2017 0757 MST
NOT Current
Partly cloudy
Partly cloudy
 Wind from calm
Wind: Calm
Temperature: 86°F , 30°C
Heat Index: 89°F , 32°C
Dew Point: 68°F , 20°C
Humidity: 55%
Barometer: 29.97 inHg , 1014.9 hPa
Clouds: Partly cloudy
Visibility: 10 miles , 16 km
Cloud details: Few Clouds 10000 ft
Partly cloudy 15000 ft
2017/07/20 14:57 KGBN 201457Z 00000KT 10SM FEW100 SCT150 30/20 A2997 RMK A02 NO SLP
 
KPRC - Prescott, Arizona, USA
Distance from station: NNW 73mi, 118km
Updated: Thu 20 Jun 2019 0153 MST
Clear
Clear
 Wind from SSW
Wind: SSW 10 mph , 17 km/h
Temperature: 64°F , 18°C
Dew Point: 25°F , -4°C
Humidity: 22%
Barometer: 30.08 inHg , 1018.6 hPa
Clouds: Clear
Visibility: 10 miles , 16 km
2019/06/20 08:53 KPRC 200853Z AUTO 20009KT 10SM CLR 18/M04 A3008 RMK AO2 SLP093 T01831039 58007
KSEZ - Sedona, Arizona, USA
Distance from station: N 84mi, 135km
Updated: Thu 20 Jun 2019 0155 MST
Clear
Clear
 Wind from NE
Wind: NE 3 mph , 6 km/h
Temperature: 70°F , 21°C
Dew Point: 28°F , -2°C
Humidity: 21%
Barometer: 30.06 inHg , 1017.9 hPa
Clouds: Clear
Visibility: 10 miles , 16 km
2019/06/20 08:55 KSEZ 200855Z AUTO 04003KT 10SM CLR 21/M02 A3006 RMK AO2
 
KFLG - Flagstaff, Arizona, USA
Distance from station: N 105mi, 168km
Updated: Thu 20 Jun 2019 0157 MST
Clear
Clear
 Wind from calm
Wind: Calm
Temperature: 45°F , 7°C
Dew Point: 25°F , -4°C
Humidity: 46%
Barometer: 30.20 inHg , 1022.7 hPa
Clouds: Clear
Visibility: 10 miles , 16 km
2019/06/20 08:57 KFLG 200857Z AUTO 00000KT 10SM CLR 07/M04 A3020 RMK AO2 SLP135 T00721039 58007
KRYN - Tucson/Ryan Field, Arizona, USA
Distance from station: SSE 114mi, 184km
Updated: Wed 19 Jun 2019 1945 MST
NOT Current
Clear
Clear
 Wind from W
Wind: W 8 mph , 13 km/h
Temperature: 91°F , 33°C
Dew Point: 12°F , -11°C
Humidity: 5%
Barometer: 29.90 inHg , 1012.5 hPa
Clouds: Clear
Visibility: 10 miles , 16 km
2019/06/20 02:45 KRYN 200245Z 28007KT 10SM CLR 33/M11 A2990 RMK LAST
 
KCMR - Williams Clark, Arizona, USA
Distance from station: N 115mi, 185km
Updated: Thu 20 Jun 2019 0155 MST
Clear
Clear
 Wind from SW
Wind: SW 13 mph , 20 km/h, Gust: 20 mph , 31 km/h
Temperature: 64°F , 18°C
Dew Point: 21°F , -6°C
Humidity: 19%
Barometer: 30.16 inHg , 1021.3 hPa
Clouds: Clear
Visibility: 10 miles , 16 km
2019/06/20 08:55 KCMR 200855Z AUTO 22011G17KT 10SM CLR 18/M06 A3016 RMK AO2
KINW - Winslow, Arizona, USA
Distance from station: NE 121mi, 194km
Updated: Thu 20 Jun 2019 0156 MST
Clear
Clear
 Wind from SW
Wind: SW 18 mph , 30 km/h
Temperature: 70°F , 21°C
Dew Point: 25°F , -4°C
Humidity: 18%
Barometer: 30.01 inHg , 1016.3 hPa
Clouds: Clear
Visibility: 10 miles , 16 km
2019/06/20 08:56 KINW 200856Z AUTO 23016KT 10SM CLR 21/M04 A3001 RMK AO2 SLP075 T02111039 58007
 
KTUS - Tucson, Arizona, USA
Distance from station: SSE 121mi, 195km
Updated: Thu 20 Jun 2019 0153 MST
Clear
Clear
 Wind from SSE
Wind: SSE 3 mph , 6 km/h
Temperature: 73°F , 23°C
Dew Point: 27°F , -3°C
Humidity: 17%
Barometer: 29.96 inHg , 1014.6 hPa
Clouds: Clear
Visibility: 10 miles , 16 km
2019/06/20 08:53 KTUS 200853Z 16003KT 10SM CLR 23/M03 A2996 RMK AO2 SLP095 T02281033 58005
KDMA - Davis AFB/Tucson, Arizona, USA
Distance from station: SE 122mi, 196km
Updated: Thu 20 Jun 2019 0158 MST
Clear
Clear
 Wind from SE
Wind: SE 8 mph , 13 km/h
Temperature: 72°F , 22°C
Dew Point: 27°F , -3°C
Humidity: 19%
Barometer: 29.94 inHg , 1013.9 hPa
Clouds: Clear
Visibility: 10 miles , 16 km
2019/06/20 08:58 KDMA 200858Z AUTO 13007KT 10SM CLR 22/M03 A2994 RMK AO2 SLP092 T02211033 58005 $
 
KSOW - Show Low Municipal, Arizona, USA
Distance from station: ENE 123mi, 198km
Updated: Thu 20 Jun 2019 0155 MST
Clear
Clear
 Wind from S
Wind: S 12 mph , 19 km/h
Temperature: 61°F , 16°C
Dew Point: 21°F , -6°C
Humidity: 22%
Barometer: 30.17 inHg , 1021.7 hPa
Clouds: Clear
Visibility: 10 miles , 16 km
2019/06/20 08:55 KSOW 200855Z AUTO 18010KT 10SM CLR 16/M06 A3017 RMK AO2
KSAD - Safford, Arizona, USA
Distance from station: ESE 148mi, 238km
Updated: Thu 20 Jun 2019 0151 MST
Clear
Clear
 Wind from WNW
Wind: WNW 7 mph , 11 km/h
Temperature: 70°F , 21°C
Dew Point: 18°F , -8°C
Humidity: 13%
Barometer: 29.93 inHg , 1013.5 hPa
Clouds: Clear
Visibility: 10 miles , 16 km
2019/06/20 08:51 KSAD 200851Z AUTO 29006KT 10SM CLR 21/M08 A2993 RMK AO2 SLP078 T02111083 55001